KRTN/RTN METAR and TAF weather

Enter ICAO airport designator
Station Type Date Time Source
KRTN METAR 2020/07/11 22:53 UTC NOAA

KRTN 112253Z AUTO 36009KT 10SM FEW100 27/13 A3027 RMK AO2 WSHFT 2223 LTG DSNT E-S RAE35 TSE24 SLP162 P0000 T02670133 $


Station Type Date Time Source
KRTN Decoded METAR 2020/07/11 22:53 UTC NOAA

Raton, Raton Municipal \ Crews Field Airport, NM, United States (KRTN) 36-44-31N 104-39-28W 1939M
Jul 11, 2020 - 06:53 PM EDT / 2020.07.11 2253 UTC
Wind: from the N (360 degrees) at 10 MPH (9 KT):0
Visibility: 10 mile(s):0
Sky conditions: mostly clear
Weather: Lightning observed
Precipitation last hour: A trace
Temperature: 80.1 F (26.7 C)
Dew Point: 55.9 F (13.3 C)
Relative Humidity: 43%
Pressure (altimeter): 30.27 in. Hg (1025 hPa)
ob: KRTN 112253Z AUTO 36009KT 10SM FEW100 27/13 A3027 RMK AO2 WSHFT 2223 LTG DSNT E-S RAE35 TSE24 SLP162 P0000 T02670133
cycle: 23

Station Type Date Time Source
KRTN TAF UTC NOAA

Error!

Example: see airport list